createdAt,value
2019-01-24T00:00:56.718Z,62.84
2019-01-24T00:01:56.658Z,62.97
2019-01-24T00:02:56.642Z,62.52
2019-01-24T00:03:56.633Z,62.52
2019-01-24T00:04:56.648Z,62.45
2019-01-24T00:05:56.634Z,63.07
2019-01-24T00:06:56.644Z,62.86
2019-01-24T00:07:56.604Z,62.84
2019-01-24T00:08:56.580Z,62.97
2019-01-24T00:09:56.570Z,62.97
2019-01-24T00:10:56.571Z,62.76
2019-01-24T00:11:56.567Z,62.55
2019-01-24T00:12:56.531Z,62.34
2019-01-24T00:13:56.523Z,62.76
2019-01-24T00:14:56.514Z,62.23
2019-01-24T00:15:56.515Z,62.02
2019-01-24T00:16:56.511Z,62.02
2019-01-24T00:17:56.499Z,62.23
2019-01-24T00:18:56.503Z,62.10
2019-01-24T00:19:56.462Z,61.79
2019-01-24T00:20:56.450Z,61.40
2019-01-24T00:21:56.464Z,61.60
2019-01-24T00:22:56.424Z,61.58
2019-01-24T00:23:56.424Z,60.87
2019-01-24T00:24:56.406Z,60.94
2019-01-24T00:25:56.395Z,61.71
2019-01-24T00:26:56.464Z,60.84
2019-01-24T00:27:56.369Z,61.29
2019-01-24T00:28:56.360Z,61.18
2019-01-24T00:29:56.380Z,61.05
2019-01-24T00:30:56.339Z,60.94
2019-01-24T00:31:56.343Z,60.84
2019-01-24T00:32:56.316Z,60.97
2019-01-24T00:33:57.249Z,61.29
2019-01-24T00:34:56.318Z,61.05
2019-01-24T00:35:57.199Z,60.77
2019-01-24T00:36:56.325Z,61.40
2019-01-24T00:37:56.269Z,61.40
2019-01-24T00:38:56.251Z,60.94
2019-01-24T00:39:56.248Z,60.97
2019-01-24T00:40:56.229Z,61.18
2019-01-24T00:41:56.214Z,61.26
2019-01-24T00:42:56.239Z,61.29
2019-01-24T00:43:56.206Z,60.55
2019-01-24T00:44:56.193Z,60.03
2019-01-24T00:45:56.175Z,60.11
2019-01-24T00:46:56.163Z,60.42
2019-01-24T00:47:56.167Z,60.31
2019-01-24T00:48:56.149Z,60.63
2019-01-24T00:49:56.127Z,60.42
2019-01-24T00:50:56.331Z,60.77
2019-01-24T00:51:56.113Z,60.94
2019-01-24T00:52:56.119Z,61.29
2019-01-24T00:53:56.086Z,60.84
2019-01-24T00:54:56.072Z,60.66
2019-01-24T00:55:56.062Z,60.13
2019-01-24T00:56:56.081Z,60.13
2019-01-24T00:57:56.057Z,60.03
2019-01-24T00:58:56.025Z,59.92
2019-01-24T00:59:56.017Z,60.66
2019-01-24T01:00:56.042Z,60.77
2019-01-24T01:01:55.996Z,60.45
2019-01-24T01:02:56.022Z,60.35
2019-01-24T01:03:55.987Z,60.45
2019-01-24T01:04:55.968Z,60.55
2019-01-24T01:05:55.958Z,60.66
2019-01-24T01:06:55.951Z,60.77
2019-01-24T01:07:56.238Z,61.40
2019-01-24T01:08:55.930Z,60.89
2019-01-24T01:09:55.942Z,60.87
2019-01-24T01:10:55.903Z,61.00
2019-01-24T01:11:55.926Z,61.29
2019-01-24T01:12:55.896Z,61.92
2019-01-24T01:13:55.873Z,61.53
2019-01-24T01:14:55.858Z,61.71
2019-01-24T01:15:55.844Z,61.40
2019-01-24T01:16:55.840Z,61.08
2019-01-24T01:17:55.861Z,61.29
2019-01-24T01:18:55.830Z,61.08
2019-01-24T01:19:55.811Z,61.18
2019-01-24T01:20:55.787Z,61.50
2019-01-24T01:21:55.807Z,60.87
2019-01-24T01:22:55.778Z,61.36
2019-01-24T01:23:55.753Z,61.29
2019-01-24T01:24:55.753Z,61.29
2019-01-24T01:25:55.737Z,61.40
2019-01-24T01:26:55.729Z,60.94
2019-01-24T01:27:55.722Z,60.97
2019-01-24T01:28:55.705Z,60.84
2019-01-24T01:29:55.694Z,60.55
2019-01-24T01:30:55.698Z,60.55
2019-01-24T01:31:55.666Z,60.87
2019-01-24T01:32:55.693Z,60.97
2019-01-24T01:33:55.654Z,60.87
2019-01-24T01:34:55.637Z,60.11
2019-01-24T01:35:55.629Z,59.90
2019-01-24T01:36:55.618Z,60.00
2019-01-24T01:37:55.633Z,59.90
2019-01-24T01:38:55.597Z,60.24
2019-01-24T01:39:55.582Z,60.31
2019-01-24T01:40:55.567Z,60.84
2019-01-24T01:41:55.567Z,61.36
2019-01-24T01:42:55.550Z,61.36
2019-01-24T01:43:55.576Z,60.97
2019-01-24T01:44:55.524Z,60.84
2019-01-24T01:45:55.517Z,61.16
2019-01-24T01:46:55.502Z,61.50
2019-01-24T01:47:55.528Z,60.87
2019-01-24T01:48:55.514Z,60.97
2019-01-24T01:49:55.474Z,61.08
2019-01-24T01:50:55.465Z,61.36
2019-01-24T01:51:55.457Z,60.97
2019-01-24T01:52:55.442Z,60.97
2019-01-24T01:53:55.452Z,61.58
2019-01-24T01:54:55.417Z,61.08
2019-01-24T01:55:55.408Z,60.87
2019-01-24T01:56:55.393Z,61.16
2019-01-24T01:57:55.396Z,61.05
2019-01-24T01:58:55.417Z,61.36
2019-01-24T01:59:55.366Z,61.40
2019-01-24T02:00:55.350Z,61.05
2019-01-24T02:01:55.358Z,61.40
2019-01-24T02:02:55.322Z,61.92
2019-01-24T02:03:55.338Z,61.71
2019-01-24T02:04:55.316Z,61.26
2019-01-24T02:05:55.313Z,61.71
2019-01-24T02:06:55.285Z,61.08
2019-01-24T02:07:55.292Z,61.08
2019-01-24T02:08:55.299Z,61.18
2019-01-24T02:09:55.247Z,61.40
2019-01-24T02:10:55.243Z,61.08
2019-01-24T02:11:55.228Z,61.16
2019-01-24T02:12:55.224Z,60.87
2019-01-24T02:13:55.234Z,61.16
2019-01-24T02:14:55.202Z,61.68
2019-01-24T02:15:55.186Z,61.29
2019-01-24T02:16:55.180Z,61.60
2019-01-24T02:17:55.168Z,61.92
2019-01-24T02:18:55.197Z,62.13
2019-01-24T02:19:55.149Z,62.02
2019-01-24T02:20:55.391Z,61.92
2019-01-24T02:21:55.127Z,62.23
2019-01-24T02:22:55.116Z,62.10
2019-01-24T02:23:55.120Z,62.13
2019-01-24T02:24:55.091Z,62.21
2019-01-24T02:25:55.074Z,62.02
2019-01-24T02:26:55.070Z,62.02
2019-01-24T02:27:55.059Z,62.23
2019-01-24T02:28:55.080Z,61.82
2019-01-24T02:29:55.111Z,61.79
2019-01-24T02:30:55.025Z,61.36
2019-01-24T02:31:55.009Z,61.99
2019-01-24T02:32:55.010Z,62.02
2019-01-24T02:33:55.019Z,61.68
2019-01-24T02:34:54.997Z,61.60
2019-01-24T02:35:54.969Z,61.60
2019-01-24T02:36:54.960Z,61.40
2019-01-24T02:37:54.953Z,61.47
2019-01-24T02:38:54.937Z,61.68
2019-01-24T02:39:54.948Z,61.47
2019-01-24T02:40:54.907Z,61.99
2019-01-24T02:41:54.899Z,61.92
2019-01-24T02:42:54.892Z,61.92
2019-01-24T02:43:54.879Z,62.23
2019-01-24T02:44:54.883Z,62.52
2019-01-24T02:45:54.859Z,62.45
2019-01-24T02:46:54.845Z,62.52
2019-01-24T02:47:54.853Z,62.41
2019-01-24T02:48:54.831Z,62.65
2019-01-24T02:49:54.826Z,62.84
2019-01-24T02:50:54.987Z,62.41
2019-01-24T02:51:54.799Z,62.73
2019-01-24T02:52:54.786Z,62.62
2019-01-24T02:53:54.770Z,62.73
2019-01-24T02:54:54.785Z,62.41
2019-01-24T02:55:54.751Z,62.41
2019-01-24T02:56:54.741Z,62.23
2019-01-24T02:57:54.724Z,61.99
2019-01-24T02:58:54.715Z,61.79
2019-01-24T02:59:54.758Z,61.29
2019-01-24T03:00:54.693Z,61.58
2019-01-24T03:01:54.693Z,61.58
2019-01-24T03:02:54.675Z,61.26
2019-01-24T03:03:54.660Z,61.68
2019-01-24T03:04:57.058Z,61.79
2019-01-24T03:05:54.638Z,62.13
2019-01-24T03:06:54.634Z,61.82
2019-01-24T03:07:54.655Z,62.13
2019-01-24T03:08:54.620Z,62.10
2019-01-24T03:09:54.619Z,61.89
2019-01-24T03:10:54.596Z,61.79
2019-01-24T03:11:54.573Z,62.10
2019-01-24T03:12:54.558Z,61.58
2019-01-24T03:13:54.563Z,61.26
2019-01-24T03:14:54.589Z,61.26
2019-01-24T03:15:54.530Z,60.94
2019-01-24T03:16:54.540Z,61.68
2019-01-24T03:17:54.504Z,61.26
2019-01-24T03:18:54.506Z,61.36
2019-01-24T03:19:54.520Z,61.47
2019-01-24T03:20:54.488Z,61.05
2019-01-24T03:21:54.475Z,61.55
2019-01-24T03:22:54.445Z,61.05
2019-01-24T03:23:54.439Z,60.84
2019-01-24T03:24:54.461Z,61.58
2019-01-24T03:25:54.428Z,61.68
2019-01-24T03:26:54.410Z,61.79
2019-01-24T03:27:54.394Z,61.26
2019-01-24T03:28:54.398Z,61.36
2019-01-24T03:29:54.393Z,61.23
2019-01-24T03:30:54.408Z,60.82
2019-01-24T03:31:54.359Z,61.44
2019-01-24T03:32:54.348Z,61.26
2019-01-24T03:33:54.327Z,61.16
2019-01-24T03:34:54.325Z,61.68
2019-01-24T03:35:54.348Z,61.47
2019-01-24T03:36:54.297Z,61.68
2019-01-24T03:37:54.287Z,61.47
2019-01-24T03:38:54.283Z,61.99
2019-01-24T03:39:54.270Z,62.10
2019-01-24T03:40:54.283Z,62.31
2019-01-24T03:41:54.248Z,62.21
2019-01-24T03:42:54.230Z,62.02
2019-01-24T03:43:54.221Z,62.41
2019-01-24T03:44:54.223Z,62.23
2019-01-24T03:45:54.223Z,62.62
2019-01-24T03:46:54.193Z,62.62
2019-01-24T03:47:54.179Z,62.21
2019-01-24T03:48:54.169Z,62.52
2019-01-24T03:49:54.168Z,62.31
2019-01-24T03:50:54.161Z,61.99
2019-01-24T03:51:54.139Z,62.10
2019-01-24T03:52:54.121Z,61.99
2019-01-24T03:53:54.112Z,61.89
2019-01-24T03:54:54.124Z,62.21
2019-01-24T03:55:54.120Z,61.99
2019-01-24T03:56:54.105Z,62.41
2019-01-24T03:57:54.063Z,62.73
2019-01-24T03:58:54.059Z,62.62
2019-01-24T03:59:54.051Z,62.73
2019-01-24T04:00:54.054Z,63.36
2019-01-24T04:01:54.024Z,63.26
2019-01-24T04:02:54.022Z,63.15
2019-01-24T04:03:54.002Z,63.15
2019-01-24T04:04:53.991Z,63.36
2019-01-24T04:05:53.984Z,62.73
2019-01-24T04:06:53.982Z,62.84
2019-01-24T04:07:53.968Z,62.84
2019-01-24T04:08:53.941Z,63.15
2019-01-24T04:09:53.931Z,63.15
2019-01-24T04:10:53.944Z,63.04
2019-01-24T04:11:53.939Z,62.84
2019-01-24T04:12:53.903Z,63.04
2019-01-24T04:13:53.903Z,62.94
2019-01-24T04:14:53.888Z,63.15
2019-01-24T04:15:53.874Z,63.26
2019-01-24T04:16:53.877Z,63.26
2019-01-24T04:17:53.852Z,62.52
2019-01-24T04:18:53.843Z,62.62
2019-01-24T04:19:53.841Z,61.89
2019-01-24T04:20:53.817Z,62.10
2019-01-24T04:21:53.827Z,61.68
2019-01-24T04:22:53.801Z,61.44
2019-01-24T04:23:53.788Z,60.84
2019-01-24T04:24:53.775Z,61.26
2019-01-24T04:25:53.755Z,61.05
2019-01-24T04:26:53.825Z,61.05
2019-01-24T04:27:53.744Z,61.05
2019-01-24T04:28:53.727Z,61.26
2019-01-24T04:29:53.719Z,60.94
2019-01-24T04:30:54.697Z,60.94
2019-01-24T04:31:53.725Z,61.40
2019-01-24T04:32:54.203Z,61.16
2019-01-24T04:33:53.671Z,61.58
2019-01-24T04:34:53.658Z,61.40
2019-01-24T04:35:53.657Z,61.18
2019-01-24T04:36:53.687Z,61.47
2019-01-24T04:37:53.624Z,60.97
2019-01-24T04:38:53.642Z,61.26
2019-01-24T04:39:53.605Z,61.16
2019-01-24T04:40:53.596Z,60.84
2019-01-24T04:41:53.582Z,60.63
2019-01-24T04:42:53.598Z,61.26
2019-01-24T04:43:53.581Z,60.63
2019-01-24T04:44:53.549Z,60.53
2019-01-24T04:45:53.539Z,60.29
2019-01-24T04:46:53.528Z,60.63
2019-01-24T04:47:53.533Z,61.26
2019-01-24T04:48:53.513Z,60.84
2019-01-24T04:49:53.513Z,61.47
2019-01-24T04:50:53.502Z,61.18
2019-01-24T04:51:53.474Z,63.04
2019-01-24T04:52:53.478Z,66.19
2019-01-24T04:53:53.472Z,66.82
2019-01-24T04:54:53.438Z,66.72
2019-01-24T04:55:53.440Z,65.67
2019-01-24T04:56:53.424Z,65.32
2019-01-24T04:57:54.863Z,64.90
2019-01-24T04:58:53.408Z,65.01
2019-01-24T04:59:53.384Z,63.96
2019-01-24T05:00:53.611Z,63.01
2019-01-24T05:01:53.375Z,63.43
2019-01-24T05:02:53.376Z,63.20
2019-01-24T05:03:53.346Z,62.46
2019-01-24T05:04:53.348Z,61.76
2019-01-24T05:05:53.329Z,61.94
2019-01-24T05:06:53.308Z,61.94
2019-01-24T05:07:53.314Z,61.31
2019-01-24T05:08:53.288Z,60.78
2019-01-24T05:09:53.334Z,61.02
2019-01-24T05:10:53.265Z,61.21
2019-01-24T05:11:53.251Z,61.34
2019-01-24T05:12:53.282Z,61.65
2019-01-24T05:13:53.246Z,61.65
2019-01-24T05:14:53.247Z,61.55
2019-01-24T05:15:53.210Z,61.55
2019-01-24T05:16:53.197Z,61.13
2019-01-24T05:17:53.185Z,61.13
2019-01-24T05:18:53.205Z,60.82
2019-01-24T05:19:53.164Z,61.58
2019-01-24T05:20:53.157Z,61.02
2019-01-24T05:21:53.142Z,61.55
2019-01-24T05:22:53.157Z,61.34
2019-01-24T05:23:53.140Z,61.02
2019-01-24T05:24:53.148Z,61.05
2019-01-24T05:25:53.104Z,61.26
2019-01-24T05:26:53.103Z,60.74
2019-01-24T05:27:53.073Z,60.94
2019-01-24T05:28:53.082Z,61.36
2019-01-24T05:29:53.060Z,60.74
2019-01-24T05:30:53.064Z,60.84
2019-01-24T05:31:53.034Z,61.50
2019-01-24T05:32:53.022Z,61.26
2019-01-24T05:33:53.030Z,61.16
2019-01-24T05:34:53.002Z,61.16
2019-01-24T05:35:52.991Z,61.50
2019-01-24T05:36:53.005Z,61.60
2019-01-24T05:37:53.017Z,61.82
2019-01-24T05:38:52.982Z,61.82
2019-01-24T05:39:52.958Z,61.79
2019-01-24T05:40:52.932Z,61.92
2019-01-24T05:41:52.928Z,62.02
2019-01-24T05:42:52.910Z,61.92
2019-01-24T05:43:53.659Z,61.50
2019-01-24T05:44:52.890Z,61.92
2019-01-24T05:45:52.879Z,62.13
2019-01-24T05:46:52.884Z,61.92
2019-01-24T05:47:52.870Z,62.02
2019-01-24T05:48:52.867Z,61.29
2019-01-24T05:49:52.847Z,60.87
2019-01-24T05:50:53.123Z,61.16
2019-01-24T05:51:52.809Z,61.58
2019-01-24T05:52:52.801Z,61.58
2019-01-24T05:53:52.821Z,61.29
2019-01-24T05:54:52.783Z,60.77
2019-01-24T05:55:52.775Z,61.40
2019-01-24T05:56:52.753Z,61.50
2019-01-24T05:57:52.746Z,61.60
2019-01-24T05:58:52.744Z,61.60
2019-01-24T05:59:52.750Z,60.84
2019-01-24T06:00:52.718Z,61.40
2019-01-24T06:01:52.745Z,61.36
2019-01-24T06:02:52.687Z,60.87
2019-01-24T06:03:52.685Z,60.97
2019-01-24T06:04:52.704Z,60.53
2019-01-24T06:05:52.663Z,61.29
2019-01-24T06:06:52.644Z,60.45
2019-01-24T06:07:52.664Z,60.42
2019-01-24T06:08:52.637Z,60.66
2019-01-24T06:09:52.638Z,61.40
2019-01-24T06:10:52.631Z,60.97
2019-01-24T06:11:52.586Z,60.97
2019-01-24T06:12:52.585Z,61.08
2019-01-24T06:13:52.569Z,60.87
2019-01-24T06:14:52.592Z,60.24
2019-01-24T06:15:52.553Z,59.92
2019-01-24T06:16:52.541Z,60.35
2019-01-24T06:17:52.524Z,59.72
2019-01-24T06:18:52.517Z,60.66
2019-01-24T06:19:52.539Z,60.45
2019-01-24T06:20:52.495Z,59.92
2019-01-24T06:21:52.499Z,59.72
2019-01-24T06:22:52.477Z,59.92
2019-01-24T06:23:52.467Z,60.13
2019-01-24T06:24:52.474Z,60.13
2019-01-24T06:25:52.445Z,59.92
2019-01-24T06:26:52.430Z,60.13
2019-01-24T06:27:52.427Z,60.45
2019-01-24T06:28:52.404Z,60.03
2019-01-24T06:29:52.451Z,60.55
2019-01-24T06:30:52.395Z,61.29
2019-01-24T06:31:52.387Z,61.08
2019-01-24T06:32:52.390Z,61.00
2019-01-24T06:33:52.349Z,60.45
2019-01-24T06:34:52.341Z,60.03
2019-01-24T06:35:52.346Z,59.50
2019-01-24T06:36:52.320Z,59.82
2019-01-24T06:37:52.337Z,59.92
2019-01-24T06:38:52.293Z,59.72
2019-01-24T06:39:52.295Z,59.92
2019-01-24T06:40:52.291Z,59.92
2019-01-24T06:41:52.271Z,60.03
2019-01-24T06:42:52.260Z,59.61
2019-01-24T06:43:52.246Z,59.72
2019-01-24T06:44:52.236Z,59.82
2019-01-24T06:45:52.280Z,59.82
2019-01-24T06:46:52.214Z,59.82
2019-01-24T06:47:52.198Z,59.82
2019-01-24T06:48:52.232Z,59.95
2019-01-24T06:49:52.243Z,59.92
2019-01-24T06:50:52.181Z,59.92
2019-01-24T06:51:52.218Z,59.95
2019-01-24T06:52:52.166Z,59.64
2019-01-24T06:53:52.133Z,59.32
2019-01-24T06:54:52.134Z,59.95
2019-01-24T06:55:52.159Z,59.95
2019-01-24T06:56:52.147Z,60.06
2019-01-24T06:57:52.155Z,60.58
2019-01-24T06:58:52.090Z,61.21
2019-01-24T06:59:52.090Z,61.32
2019-01-24T07:00:52.141Z,61.00
2019-01-24T07:01:52.066Z,61.11
2019-01-24T07:02:52.067Z,60.89
2019-01-24T07:03:52.029Z,60.79
2019-01-24T07:04:52.044Z,60.79
2019-01-24T07:05:55.534Z,61.63
2019-01-24T07:06:51.988Z,61.74
2019-01-24T07:07:52.047Z,61.94
2019-01-24T07:08:51.986Z,61.74
2019-01-24T07:09:51.981Z,61.32
2019-01-24T07:10:52.324Z,61.21
2019-01-24T07:11:51.961Z,61.53
2019-01-24T07:12:51.981Z,61.32
2019-01-24T07:13:51.912Z,61.63
2019-01-24T07:14:51.937Z,61.53
2019-01-24T07:15:51.929Z,61.74
2019-01-24T07:16:51.899Z,61.00
2019-01-24T07:17:51.896Z,61.00
2019-01-24T07:18:51.861Z,61.94
2019-01-24T07:19:51.851Z,61.84
2019-01-24T07:20:51.895Z,61.63
2019-01-24T07:21:51.822Z,61.21
2019-01-24T07:22:51.812Z,61.63
2019-01-24T07:23:51.804Z,61.84
2019-01-24T07:24:51.791Z,61.60
2019-01-24T07:25:51.786Z,61.29
2019-01-24T07:26:51.790Z,60.97
2019-01-24T07:27:51.766Z,61.11
2019-01-24T07:28:51.769Z,61.08
2019-01-24T07:29:51.740Z,61.18
2019-01-24T07:30:51.748Z,60.97
2019-01-24T07:31:51.726Z,61.40
2019-01-24T07:32:51.737Z,61.82
2019-01-24T07:33:51.705Z,61.71
2019-01-24T07:34:51.684Z,61.60
2019-01-24T07:35:51.718Z,60.87
2019-01-24T07:36:51.685Z,61.60
2019-01-24T07:37:51.668Z,61.60
2019-01-24T07:38:51.637Z,61.40
2019-01-24T07:39:51.632Z,61.08
2019-01-24T07:40:51.620Z,61.08
2019-01-24T07:41:51.644Z,61.60
2019-01-24T07:42:51.616Z,61.71
2019-01-24T07:43:51.598Z,61.50
2019-01-24T07:44:51.589Z,61.60
2019-01-24T07:45:51.569Z,61.29
2019-01-24T07:46:51.678Z,61.60
2019-01-24T07:47:51.538Z,61.40
2019-01-24T07:48:51.542Z,61.18
2019-01-24T07:49:51.521Z,61.18
2019-01-24T07:50:51.561Z,60.97
2019-01-24T07:51:51.517Z,60.87
2019-01-24T07:52:51.502Z,61.08
2019-01-24T07:53:51.478Z,61.40
2019-01-24T07:54:51.490Z,61.18
2019-01-24T07:55:51.465Z,60.69
2019-01-24T07:56:51.465Z,60.97
2019-01-24T07:57:51.437Z,61.74
2019-01-24T07:58:51.425Z,61.32
2019-01-24T07:59:51.445Z,61.00
2019-01-24T08:00:51.416Z,61.11
2019-01-24T08:01:51.413Z,60.69
2019-01-24T08:02:51.380Z,60.66
2019-01-24T08:03:51.377Z,60.77
2019-01-24T08:04:51.362Z,60.66
2019-01-24T08:05:51.350Z,60.97
2019-01-24T08:06:51.353Z,60.24
2019-01-24T08:07:51.322Z,60.55
2019-01-24T08:08:51.333Z,59.92
2019-01-24T08:09:51.308Z,59.92
2019-01-24T08:10:51.300Z,60.16
2019-01-24T08:11:51.324Z,59.95
2019-01-24T08:12:51.280Z,60.06
2019-01-24T08:13:51.265Z,60.69
2019-01-24T08:14:51.250Z,60.58
2019-01-24T08:15:51.236Z,61.29
2019-01-24T08:16:51.400Z,60.69
2019-01-24T08:17:51.223Z,60.58
2019-01-24T08:18:51.203Z,60.79
2019-01-24T08:19:51.196Z,60.69
2019-01-24T08:20:51.182Z,60.48
2019-01-24T08:21:51.241Z,60.89
2019-01-24T08:22:51.232Z,60.58
2019-01-24T08:23:51.148Z,60.48
2019-01-24T08:24:51.144Z,60.37
2019-01-24T08:25:51.147Z,60.58
2019-01-24T08:26:51.171Z,60.87
2019-01-24T08:27:51.103Z,60.69
2019-01-24T08:28:51.092Z,61.21
2019-01-24T08:29:51.097Z,61.32
2019-01-24T08:30:51.079Z,61.42
2019-01-24T08:31:51.061Z,60.89
2019-01-24T08:32:51.099Z,61.08
2019-01-24T08:33:51.038Z,61.42
2019-01-24T08:34:51.025Z,61.74
2019-01-24T08:35:51.022Z,61.50
2019-01-24T08:36:51.009Z,61.40
2019-01-24T08:37:51.023Z,61.92
2019-01-24T08:38:50.990Z,61.74
2019-01-24T08:39:50.971Z,61.60
2019-01-24T08:40:50.962Z,61.50
2019-01-24T08:41:50.970Z,61.82
2019-01-24T08:42:50.967Z,61.08
2019-01-24T08:43:50.930Z,60.87
2019-01-24T08:44:50.919Z,60.77
2019-01-24T08:45:50.915Z,60.13
2019-01-24T08:46:50.903Z,59.92
2019-01-24T08:47:50.899Z,60.03
2019-01-24T08:48:50.914Z,59.92
2019-01-24T08:49:50.868Z,59.92
2019-01-24T08:50:50.859Z,60.03
2019-01-24T08:51:50.852Z,60.55
2019-01-24T08:52:50.851Z,60.42
2019-01-24T08:53:50.823Z,59.69
2019-01-24T08:54:50.815Z,59.82
2019-01-24T08:55:50.802Z,60.45
2019-01-24T08:56:50.791Z,60.03
2019-01-24T08:57:50.799Z,60.35
2019-01-24T08:58:51.673Z,60.11
2019-01-24T08:59:50.753Z,59.92
2019-01-24T09:00:50.749Z,60.03
2019-01-24T09:01:50.731Z,59.92
2019-01-24T09:02:50.742Z,60.00
2019-01-24T09:03:50.730Z,62.45
2019-01-24T09:04:50.703Z,64.43
2019-01-24T09:05:50.690Z,66.40
2019-01-24T09:06:50.675Z,72.45
2019-01-24T09:07:50.693Z,71.93
2019-01-24T09:08:50.655Z,69.48
2019-01-24T09:09:50.643Z,65.71
2019-01-24T09:10:50.645Z,64.84
2019-01-24T09:11:50.623Z,65.26
2019-01-24T09:12:50.649Z,63.59
2019-01-24T09:13:50.606Z,63.77
2019-01-24T09:14:50.592Z,63.45
2019-01-24T09:15:50.580Z,64.58
2019-01-24T09:16:50.573Z,60.81
2019-01-24T09:17:50.561Z,57.98
2019-01-24T09:18:51.187Z,57.77
2019-01-24T09:19:50.538Z,57.17
2019-01-24T09:20:50.520Z,57.35
2019-01-24T09:21:50.512Z,57.59
2019-01-24T09:22:55.191Z,57.59
2019-01-24T09:23:51.510Z,57.90
2019-01-24T09:24:50.479Z,57.70
2019-01-24T09:25:50.472Z,57.72
2019-01-24T09:26:50.461Z,57.82
2019-01-24T09:27:50.449Z,57.82
2019-01-24T09:28:50.451Z,57.51
2019-01-24T09:29:50.419Z,57.54
2019-01-24T09:30:50.412Z,57.75
2019-01-24T09:31:50.402Z,57.64
2019-01-24T09:32:50.396Z,57.64
2019-01-24T09:33:50.406Z,57.64
2019-01-24T09:34:50.382Z,58.29
2019-01-24T09:35:50.355Z,58.59
2019-01-24T09:36:50.348Z,58.29
2019-01-24T09:37:50.339Z,58.61
2019-01-24T09:38:50.356Z,58.19
2019-01-24T09:39:50.314Z,58.72
2019-01-24T09:40:50.305Z,58.92
2019-01-24T09:41:50.299Z,58.92
2019-01-24T09:42:50.289Z,59.24
2019-01-24T09:43:50.284Z,59.14
2019-01-24T09:44:50.265Z,59.24
2019-01-24T09:45:50.254Z,59.24
2019-01-24T09:46:50.233Z,59.45
2019-01-24T09:47:50.234Z,59.14
2019-01-24T09:48:50.238Z,60.50
2019-01-24T09:49:50.200Z,61.65
2019-01-24T09:50:50.202Z,61.87
2019-01-24T09:51:50.188Z,60.60
2019-01-24T09:52:50.172Z,59.77
2019-01-24T09:53:50.184Z,59.77
2019-01-24T09:54:50.155Z,59.24
2019-01-24T09:55:50.135Z,59.53
2019-01-24T09:56:50.133Z,59.11
2019-01-24T09:57:50.131Z,59.22
2019-01-24T09:58:50.135Z,59.32
2019-01-24T09:59:50.148Z,58.92
2019-01-24T10:00:50.116Z,59.24
2019-01-24T10:01:50.086Z,58.82
2019-01-24T10:02:50.058Z,59.34
2019-01-24T10:03:50.054Z,59.34
2019-01-24T10:04:50.064Z,59.14
2019-01-24T10:05:50.025Z,58.72
2019-01-24T10:06:50.684Z,59.24
2019-01-24T10:07:50.004Z,59.03
2019-01-24T10:08:50.028Z,58.40
2019-01-24T10:09:49.994Z,59.34
2019-01-24T10:10:49.969Z,59.66
2019-01-24T10:11:49.998Z,60.08
2019-01-24T10:12:49.950Z,59.77
2019-01-24T10:13:49.930Z,59.87
2019-01-24T10:14:49.984Z,59.87
2019-01-24T10:15:49.920Z,59.77
2019-01-24T10:16:49.904Z,60.19
2019-01-24T10:17:49.889Z,60.29
2019-01-24T10:18:49.889Z,60.21
2019-01-24T10:19:49.881Z,59.56
2019-01-24T10:20:49.864Z,59.87
2019-01-24T10:21:49.844Z,59.34
2019-01-24T10:22:49.841Z,59.24
2019-01-24T10:23:49.825Z,59.34
2019-01-24T10:24:49.836Z,59.03
2019-01-24T10:25:49.816Z,59.24
2019-01-24T10:26:49.812Z,59.38
2019-01-24T10:27:49.802Z,60.11
2019-01-24T10:28:49.779Z,60.00
2019-01-24T10:29:49.792Z,60.00
2019-01-24T10:30:49.746Z,60.00
2019-01-24T10:31:49.749Z,59.50
2019-01-24T10:32:49.726Z,60.42
2019-01-24T10:33:49.715Z,59.69
2019-01-24T10:34:49.739Z,60.00
2019-01-24T10:35:49.717Z,59.79
2019-01-24T10:36:49.672Z,59.69
2019-01-24T10:37:49.680Z,60.13
2019-01-24T10:38:49.666Z,60.31
2019-01-24T10:39:49.660Z,59.79
2019-01-24T10:40:49.665Z,60.00
2019-01-24T10:41:49.623Z,59.58
2019-01-24T10:42:49.624Z,60.31
2019-01-24T10:43:49.603Z,59.79
2019-01-24T10:44:49.597Z,59.48
2019-01-24T10:45:49.643Z,59.27
2019-01-24T10:46:49.589Z,59.58
2019-01-24T10:47:49.565Z,59.79
2019-01-24T10:48:49.556Z,59.27
2019-01-24T10:49:49.545Z,59.40
2019-01-24T10:50:49.548Z,60.03
2019-01-24T10:51:49.521Z,59.79
2019-01-24T10:52:49.506Z,59.79
2019-01-24T10:53:49.493Z,60.45
2019-01-24T10:54:49.487Z,59.69
2019-01-24T10:55:49.489Z,59.92
2019-01-24T10:56:49.475Z,59.69
2019-01-24T10:57:49.456Z,59.92
2019-01-24T10:58:49.443Z,59.92
2019-01-24T10:59:49.433Z,59.72
2019-01-24T11:00:49.442Z,60.03
2019-01-24T11:01:49.421Z,59.61
2019-01-24T11:02:49.426Z,59.50
2019-01-24T11:03:49.391Z,59.61
2019-01-24T11:04:49.382Z,59.50
2019-01-24T11:05:49.392Z,59.50
2019-01-24T11:06:50.110Z,59.61
2019-01-24T11:07:49.362Z,59.82
2019-01-24T11:08:49.328Z,60.03
2019-01-24T11:09:49.322Z,60.24
2019-01-24T11:10:49.371Z,59.92
2019-01-24T11:11:49.297Z,60.35
2019-01-24T11:12:49.277Z,60.13
2019-01-24T11:13:49.272Z,60.35
2019-01-24T11:14:49.261Z,59.64
2019-01-24T11:15:49.273Z,59.72
2019-01-24T11:16:49.242Z,59.84
2019-01-24T11:17:49.234Z,59.64
2019-01-24T11:18:49.248Z,59.53
2019-01-24T11:19:49.259Z,59.72
2019-01-24T11:20:49.251Z,59.64
2019-01-24T11:21:49.182Z,59.50
2019-01-24T11:22:49.173Z,59.72
2019-01-24T11:23:49.162Z,60.37
2019-01-24T11:24:49.151Z,59.92
2019-01-24T11:25:49.182Z,60.03
2019-01-24T11:26:49.131Z,59.95
2019-01-24T11:27:49.150Z,60.13
2019-01-24T11:28:49.107Z,60.13
2019-01-24T11:29:49.099Z,60.27
2019-01-24T11:30:49.108Z,60.69
2019-01-24T11:31:49.100Z,60.69
2019-01-24T11:32:49.083Z,60.97
2019-01-24T11:33:49.051Z,61.29
2019-01-24T11:34:49.045Z,61.00
2019-01-24T11:35:49.042Z,60.89
2019-01-24T11:36:49.021Z,60.55
2019-01-24T11:37:49.023Z,61.18
2019-01-24T11:38:49.030Z,60.97
2019-01-24T11:39:48.994Z,61.92
2019-01-24T11:40:48.976Z,61.50
2019-01-24T11:41:48.995Z,61.08
2019-01-24T11:42:48.969Z,61.29
2019-01-24T11:43:48.949Z,61.18
2019-01-24T11:44:48.947Z,60.87
2019-01-24T11:45:48.919Z,60.87
2019-01-24T11:46:48.925Z,61.99
2019-01-24T11:47:48.926Z,61.50
2019-01-24T11:48:48.899Z,61.29
2019-01-24T11:49:48.876Z,62.02
2019-01-24T11:50:48.859Z,62.02
2019-01-24T11:51:48.869Z,62.13
2019-01-24T11:52:48.878Z,62.02
2019-01-24T11:53:53.043Z,62.47
2019-01-24T11:54:48.817Z,62.68
2019-01-24T11:55:48.823Z,62.99
2019-01-24T11:56:48.804Z,62.37
2019-01-24T11:57:48.816Z,62.79
2019-01-24T11:58:48.774Z,62.79
2019-01-24T11:59:48.763Z,62.34
2019-01-24T12:00:48.787Z,62.47
2019-01-24T12:01:48.756Z,62.65
2019-01-24T12:02:48.765Z,62.37
2019-01-24T12:03:48.731Z,62.37
2019-01-24T12:04:48.711Z,62.47
2019-01-24T12:05:48.703Z,62.58
2019-01-24T12:06:48.688Z,62.60
2019-01-24T12:07:48.702Z,62.58
2019-01-24T12:08:48.672Z,62.79
2019-01-24T12:09:48.656Z,62.71
2019-01-24T12:10:48.645Z,63.21
2019-01-24T12:11:48.648Z,62.99
2019-01-24T12:12:48.622Z,63.23
2019-01-24T12:13:48.627Z,63.31
2019-01-24T12:14:48.604Z,62.99
2019-01-24T12:15:48.591Z,62.99
2019-01-24T12:16:48.582Z,63.02
2019-01-24T12:17:48.566Z,63.21
2019-01-24T12:18:48.590Z,63.21
2019-01-24T12:19:48.558Z,63.23
2019-01-24T12:20:48.532Z,63.10
2019-01-24T12:21:48.535Z,62.92
2019-01-24T12:22:48.515Z,63.34
2019-01-24T12:23:48.510Z,63.45
2019-01-24T12:24:48.490Z,63.23
2019-01-24T12:25:48.488Z,63.34
2019-01-24T12:26:48.500Z,63.87
2019-01-24T12:27:48.464Z,64.18
2019-01-24T12:28:48.446Z,63.76
2019-01-24T12:29:48.439Z,64.18
2019-01-24T12:30:48.430Z,63.79
2019-01-24T12:31:48.418Z,64.31
2019-01-24T12:32:48.438Z,64.21
2019-01-24T12:33:48.394Z,63.90
2019-01-24T12:34:48.378Z,63.76
2019-01-24T12:35:48.371Z,63.79
2019-01-24T12:36:48.362Z,64.18
2019-01-24T12:37:48.369Z,63.65
2019-01-24T12:38:48.347Z,64.42
2019-01-24T12:39:48.329Z,64.18
2019-01-24T12:40:48.323Z,64.21
2019-01-24T12:41:48.307Z,64.07
2019-01-24T12:42:48.325Z,64.21
2019-01-24T12:43:48.284Z,64.18
2019-01-24T12:44:48.271Z,63.79
2019-01-24T12:45:48.260Z,63.37
2019-01-24T12:46:48.251Z,63.37
2019-01-24T12:47:48.262Z,63.26
2019-01-24T12:48:48.230Z,63.90
2019-01-24T12:49:48.256Z,63.68
2019-01-24T12:50:48.255Z,63.90
2019-01-24T12:51:48.205Z,64.42
2019-01-24T12:52:48.207Z,64.31